createdAt,value
2016-11-02T00:00:47.260Z,62.1
2016-11-02T00:01:46.942Z,62.1
2016-11-02T00:02:47.225Z,62.29
2016-11-02T00:03:47.224Z,62.38
2016-11-02T00:04:47.193Z,62.38
2016-11-02T00:05:46.877Z,62.48
2016-11-02T00:06:47.161Z,62.29
2016-11-02T00:07:47.138Z,62.29
2016-11-02T00:08:47.120Z,62.1
2016-11-02T00:09:47.127Z,62
2016-11-02T00:10:47.172Z,62
2016-11-02T00:11:47.134Z,62
2016-11-02T00:12:47.087Z,62.1
2016-11-02T00:13:46.801Z,62.38
2016-11-02T00:14:47.062Z,62.29
2016-11-02T00:15:47.004Z,62.1
2016-11-02T00:16:46.987Z,61.81
2016-11-02T00:17:46.972Z,62.19
2016-11-02T00:18:46.955Z,62.1
2016-11-02T00:19:46.967Z,62.1
2016-11-02T00:20:46.932Z,61.71
2016-11-02T00:21:46.905Z,62
2016-11-02T00:22:46.889Z,62
2016-11-02T00:23:46.884Z,62.29
2016-11-02T00:24:46.855Z,62.1
2016-11-02T00:25:46.836Z,62.48
2016-11-02T00:26:46.823Z,62.29
2016-11-02T00:27:46.801Z,62.19
2016-11-02T00:28:46.786Z,62.58
2016-11-02T00:29:46.773Z,62.68
2016-11-02T00:30:46.764Z,62.68
2016-11-02T00:31:46.733Z,62.68
2016-11-02T00:32:46.419Z,62.68
2016-11-02T00:33:46.702Z,62.19
2016-11-02T00:34:46.693Z,62.38
2016-11-02T00:35:46.668Z,62.38
2016-11-02T00:36:46.653Z,62.48
2016-11-02T00:37:46.636Z,62.1
2016-11-02T00:38:46.617Z,62.19
2016-11-02T00:39:46.601Z,62.1
2016-11-02T00:40:46.587Z,62.38
2016-11-02T00:41:46.567Z,62.29
2016-11-02T00:42:46.548Z,62.1
2016-11-02T00:43:46.536Z,62.1
2016-11-02T00:44:46.518Z,62.38
2016-11-02T00:45:46.501Z,62.38
2016-11-02T00:46:46.484Z,62.48
2016-11-02T00:47:46.470Z,62.38
2016-11-02T00:48:46.447Z,62.38
2016-11-02T00:49:46.433Z,62.68
2016-11-02T00:50:46.416Z,62.96
2016-11-02T00:51:46.396Z,62.87
2016-11-02T00:52:46.383Z,62.96
2016-11-02T00:53:46.359Z,62.68
2016-11-02T00:54:46.346Z,62.96
2016-11-02T00:55:46.328Z,62.87
2016-11-02T00:56:46.313Z,62.48
2016-11-02T00:57:46.292Z,62.96
2016-11-02T00:58:46.284Z,62.68
2016-11-02T00:59:46.260Z,62.87
2016-11-02T01:00:46.243Z,62.68
2016-11-02T01:01:46.225Z,63.06
2016-11-02T01:02:46.263Z,62.77
2016-11-02T01:03:46.200Z,62.48
2016-11-02T01:04:46.179Z,62.87
2016-11-02T01:05:46.159Z,62.96
2016-11-02T01:06:46.140Z,63.06
2016-11-02T01:07:46.122Z,62.48
2016-11-02T01:08:46.105Z,62.68
2016-11-02T01:09:46.091Z,62.68
2016-11-02T01:10:46.077Z,62.77
2016-11-02T01:11:46.061Z,62.58
2016-11-02T01:12:46.037Z,62.68
2016-11-02T01:13:46.022Z,62.87
2016-11-02T01:14:46.002Z,62.77
2016-11-02T01:15:45.993Z,62.68
2016-11-02T01:16:45.972Z,62.77
2016-11-02T01:17:45.956Z,62.58
2016-11-02T01:18:45.934Z,62.87
2016-11-02T01:19:45.919Z,62.77
2016-11-02T01:20:45.900Z,63.15
2016-11-02T01:21:45.897Z,62.58
2016-11-02T01:22:45.868Z,62.68
2016-11-02T01:23:45.859Z,62.58
2016-11-02T01:24:45.873Z,62.48
2016-11-02T01:25:45.818Z,62.87
2016-11-02T01:26:45.807Z,62.48
2016-11-02T01:27:45.788Z,62.48
2016-11-02T01:28:45.769Z,62.87
2016-11-02T01:29:45.753Z,62.48
2016-11-02T01:30:45.733Z,62.87
2016-11-02T01:31:45.717Z,62.87
2016-11-02T01:32:45.704Z,63.15
2016-11-02T01:33:45.687Z,63.06
2016-11-02T01:34:45.665Z,62.48
2016-11-02T01:35:45.655Z,62.77
2016-11-02T01:36:45.633Z,63.06
2016-11-02T01:37:45.622Z,63.25
2016-11-02T01:38:45.605Z,63.15
2016-11-02T01:39:45.588Z,62.87
2016-11-02T01:40:45.569Z,62.87
2016-11-02T01:41:45.554Z,62.87
2016-11-02T01:42:45.532Z,62.87
2016-11-02T01:43:45.515Z,62.87
2016-11-02T01:44:45.500Z,62.77
2016-11-02T01:45:45.483Z,62.87
2016-11-02T01:46:45.467Z,62.58
2016-11-02T01:47:45.448Z,63.15
2016-11-02T01:48:45.433Z,62.68
2016-11-02T01:49:45.416Z,62.77
2016-11-02T01:50:45.403Z,63.25
2016-11-02T01:51:45.381Z,62.87
2016-11-02T01:52:45.366Z,63.35
2016-11-02T01:53:45.351Z,63.06
2016-11-02T01:54:45.332Z,63.35
2016-11-02T01:55:45.316Z,63.25
2016-11-02T01:56:45.334Z,63.06
2016-11-02T01:57:45.280Z,62.87
2016-11-02T01:58:45.265Z,62.48
2016-11-02T01:59:45.250Z,63.25
2016-11-02T02:00:45.233Z,62.87
2016-11-02T02:01:45.214Z,63.35
2016-11-02T02:02:45.199Z,63.25
2016-11-02T02:03:45.182Z,63.25
2016-11-02T02:04:45.179Z,63.06
2016-11-02T02:05:45.147Z,62.77
2016-11-02T02:06:45.161Z,62.96
2016-11-02T02:07:45.115Z,62.96
2016-11-02T02:08:45.098Z,63.25
2016-11-02T02:09:45.081Z,63.25
2016-11-02T02:10:45.063Z,63.25
2016-11-02T02:11:45.046Z,63.35
2016-11-02T02:12:45.033Z,63.35
2016-11-02T02:13:45.016Z,63.35
2016-11-02T02:14:44.999Z,63.25
2016-11-02T02:15:44.986Z,63.25
2016-11-02T02:16:44.963Z,63.54
2016-11-02T02:17:44.945Z,63.45
2016-11-02T02:18:44.931Z,62.96
2016-11-02T02:19:44.909Z,63.15
2016-11-02T02:20:44.895Z,63.25
2016-11-02T02:21:44.917Z,62.87
2016-11-02T02:22:44.862Z,63.54
2016-11-02T02:23:44.845Z,63.35
2016-11-02T02:24:44.828Z,62.87
2016-11-02T02:25:44.812Z,63.25
2016-11-02T02:26:44.795Z,63.25
2016-11-02T02:27:44.778Z,63.35
2016-11-02T02:28:44.759Z,63.35
2016-11-02T02:29:44.750Z,62.87
2016-11-02T02:30:44.725Z,63.06
2016-11-02T02:31:44.708Z,63.06
2016-11-02T02:32:44.693Z,63.06
2016-11-02T02:33:44.675Z,63.15
2016-11-02T02:34:44.670Z,63.25
2016-11-02T02:35:44.645Z,63.15
2016-11-02T02:36:44.626Z,63.06
2016-11-02T02:37:44.617Z,63.15
2016-11-02T02:38:44.595Z,63.15
2016-11-02T02:39:44.574Z,63.06
2016-11-02T02:40:44.563Z,63.25
2016-11-02T02:41:44.544Z,63.25
2016-11-02T02:42:44.523Z,63.15
2016-11-02T02:43:44.510Z,63.06
2016-11-02T02:44:44.491Z,63.25
2016-11-02T02:45:44.472Z,63.25
2016-11-02T02:46:44.458Z,63.35
2016-11-02T02:47:44.446Z,63.15
2016-11-02T02:48:44.128Z,63.15
2016-11-02T02:49:44.407Z,63.15
2016-11-02T02:50:44.390Z,63.35
2016-11-02T02:51:44.377Z,63.15
2016-11-02T02:52:44.358Z,63.15
2016-11-02T02:53:44.341Z,63.15
2016-11-02T02:54:44.323Z,63.15
2016-11-02T02:55:44.306Z,63.25
2016-11-02T02:56:44.289Z,63.15
2016-11-02T02:57:44.276Z,63.25
2016-11-02T02:58:44.255Z,63.25
2016-11-02T02:59:44.238Z,62.96
2016-11-02T03:00:44.220Z,63.25
2016-11-02T03:01:44.209Z,63.15
2016-11-02T03:02:44.188Z,62.96
2016-11-02T03:03:44.171Z,63.15
2016-11-02T03:04:44.154Z,63.15
2016-11-02T03:05:44.140Z,63.15
2016-11-02T03:06:44.123Z,63.15
2016-11-02T03:07:44.102Z,63.15
2016-11-02T03:08:44.085Z,63.25
2016-11-02T03:09:44.070Z,63.25
2016-11-02T03:10:44.053Z,62.96
2016-11-02T03:11:44.038Z,63.25
2016-11-02T03:12:43.720Z,63.06
2016-11-02T03:13:44.002Z,62.96
2016-11-02T03:14:43.990Z,63.06
2016-11-02T03:15:43.965Z,63.45
2016-11-02T03:16:43.952Z,62.96
2016-11-02T03:17:43.932Z,62.87
2016-11-02T03:18:43.921Z,63.83
2016-11-02T03:19:43.902Z,63.73
2016-11-02T03:20:43.886Z,63.25
2016-11-02T03:21:43.868Z,63.64
2016-11-02T03:22:43.853Z,63.15
2016-11-02T03:23:43.830Z,63.15
2016-11-02T03:24:43.824Z,63.35
2016-11-02T03:25:43.801Z,63.25
2016-11-02T03:26:43.782Z,63.64
2016-11-02T03:27:43.767Z,62.87
2016-11-02T03:28:43.766Z,63.83
2016-11-02T03:29:43.734Z,62.96
2016-11-02T03:30:43.715Z,63.06
2016-11-02T03:31:43.742Z,62.96
2016-11-02T03:32:43.687Z,63.45
2016-11-02T03:33:43.668Z,63.25
2016-11-02T03:34:43.645Z,62.87
2016-11-02T03:35:43.636Z,63.64
2016-11-02T03:36:43.614Z,62.87
2016-11-02T03:37:43.597Z,63.15
2016-11-02T03:38:43.582Z,63.15
2016-11-02T03:39:43.567Z,63.25
2016-11-02T03:40:43.552Z,63.54
2016-11-02T03:41:43.530Z,62.87
2016-11-02T03:42:43.515Z,63.06
2016-11-02T03:43:43.499Z,63.15
2016-11-02T03:44:43.479Z,62.87
2016-11-02T03:45:43.463Z,63.45
2016-11-02T03:46:43.456Z,63.45
2016-11-02T03:47:43.429Z,63.35
2016-11-02T03:48:43.412Z,63.83
2016-11-02T03:49:43.395Z,63.64
2016-11-02T03:50:43.378Z,63.64
2016-11-02T03:51:43.364Z,63.45
2016-11-02T03:52:43.347Z,63.83
2016-11-02T03:53:43.326Z,63.25
2016-11-02T03:54:43.313Z,63.45
2016-11-02T03:55:43.292Z,62.87
2016-11-02T03:56:43.278Z,63.06
2016-11-02T03:57:43.261Z,63.45
2016-11-02T03:58:43.246Z,63.25
2016-11-02T03:59:42.923Z,63.06
2016-11-02T04:00:43.213Z,63.83
2016-11-02T04:01:43.192Z,63.73
2016-11-02T04:02:43.174Z,63.83
2016-11-02T04:03:43.213Z,63.45
2016-11-02T04:04:43.199Z,63.73
2016-11-02T04:05:43.180Z,63.73
2016-11-02T04:06:43.169Z,63.64
2016-11-02T04:07:43.144Z,63.35
2016-11-02T04:08:43.124Z,63.54
2016-11-02T04:09:43.115Z,63.25
2016-11-02T04:10:43.096Z,62.77
2016-11-02T04:11:43.083Z,63.15
2016-11-02T04:12:43.059Z,63.15
2016-11-02T04:13:43.052Z,63.06
2016-11-02T04:14:43.029Z,63.12
2016-11-02T04:15:43.012Z,62.87
2016-11-02T04:16:42.999Z,63.06
2016-11-02T04:17:42.976Z,62.96
2016-11-02T04:18:42.960Z,63.15
2016-11-02T04:19:42.941Z,63.06
2016-11-02T04:20:42.926Z,63.25
2016-11-02T04:21:42.597Z,63.06
2016-11-02T04:22:42.895Z,63.02
2016-11-02T04:23:42.886Z,62.96
2016-11-02T04:24:42.864Z,62.96
2016-11-02T04:25:42.842Z,63.12
2016-11-02T04:26:42.825Z,63.15
2016-11-02T04:27:42.812Z,63.25
2016-11-02T04:28:42.792Z,63.06
2016-11-02T04:29:42.773Z,63.12
2016-11-02T04:30:42.754Z,62.77
2016-11-02T04:31:42.739Z,63.15
2016-11-02T04:32:42.409Z,63.15
2016-11-02T04:33:42.704Z,63.25
2016-11-02T04:34:42.693Z,63.22
2016-11-02T04:35:42.617Z,63.15
2016-11-02T04:36:42.604Z,63.15
2016-11-02T04:37:42.581Z,63.15
2016-11-02T04:38:42.568Z,63.35
2016-11-02T04:39:42.551Z,63.06
2016-11-02T04:40:42.530Z,63.54
2016-11-02T04:41:42.519Z,63.6
2016-11-02T04:42:42.497Z,62.87
2016-11-02T04:43:42.478Z,63.15
2016-11-02T04:44:42.469Z,63.25
2016-11-02T04:45:42.446Z,62.96
2016-11-02T04:46:42.426Z,63.54
2016-11-02T04:47:42.418Z,63.54
2016-11-02T04:48:42.395Z,63.54
2016-11-02T04:49:42.378Z,62.93
2016-11-02T04:50:42.364Z,62.84
2016-11-02T04:51:42.344Z,63.41
2016-11-02T04:52:42.325Z,63.15
2016-11-02T04:53:42.309Z,62.84
2016-11-02T04:54:42.297Z,63.25
2016-11-02T04:55:42.275Z,63.12
2016-11-02T04:56:42.260Z,63.22
2016-11-02T04:57:42.240Z,63.22
2016-11-02T04:58:42.229Z,63.22
2016-11-02T04:59:42.207Z,63.12
2016-11-02T05:00:42.196Z,62.93
2016-11-02T05:01:42.173Z,63.22
2016-11-02T05:02:42.154Z,63.22
2016-11-02T05:03:42.141Z,63.22
2016-11-02T05:04:42.126Z,63.32
2016-11-02T05:05:42.145Z,63.6
2016-11-02T05:06:42.089Z,63.06
2016-11-02T05:07:42.078Z,63.15
2016-11-02T05:08:42.057Z,62.68
2016-11-02T05:09:42.041Z,62.87
2016-11-02T05:10:42.020Z,62.38
2016-11-02T05:11:42.041Z,62.29
2016-11-02T05:12:41.994Z,62.23
2016-11-02T05:13:41.971Z,61.55
2016-11-02T05:14:41.953Z,62.23
2016-11-02T05:15:41.936Z,61.94
2016-11-02T05:16:41.919Z,62.13
2016-11-02T05:17:41.902Z,62.03
2016-11-02T05:18:41.887Z,61.46
2016-11-02T05:19:41.867Z,61.36
2016-11-02T05:20:41.850Z,61.36
2016-11-02T05:21:41.839Z,61.49
2016-11-02T05:22:41.822Z,61.39
2016-11-02T05:23:41.798Z,61.16
2016-11-02T05:24:41.785Z,61.77
2016-11-02T05:25:41.770Z,61.49
2016-11-02T05:26:41.751Z,61.58
2016-11-02T05:27:41.738Z,61.68
2016-11-02T05:28:41.719Z,61.49
2016-11-02T05:29:41.699Z,61.39
2016-11-02T05:30:41.690Z,61.39
2016-11-02T05:31:41.667Z,61.1
2016-11-02T05:32:41.652Z,61.39
2016-11-02T05:33:41.639Z,61.29
2016-11-02T05:34:41.617Z,61.49
2016-11-02T05:35:41.602Z,61.19
2016-11-02T05:36:41.587Z,61.49
2016-11-02T05:37:41.568Z,61.1
2016-11-02T05:38:41.553Z,61.49
2016-11-02T05:39:41.535Z,61.77
2016-11-02T05:40:41.516Z,61.58
2016-11-02T05:41:41.551Z,61.87
2016-11-02T05:42:41.484Z,61.77
2016-11-02T05:43:41.464Z,61.77
2016-11-02T05:44:41.451Z,61.29
2016-11-02T05:45:41.434Z,61.87
2016-11-02T05:46:41.417Z,61.77
2016-11-02T05:47:41.440Z,61.87
2016-11-02T05:48:41.384Z,61.97
2016-11-02T05:49:41.365Z,61.39
2016-11-02T05:50:41.348Z,61.39
2016-11-02T05:51:41.333Z,61.77
2016-11-02T05:52:41.314Z,61.58
2016-11-02T05:53:41.298Z,61.58
2016-11-02T05:54:41.285Z,61.68
2016-11-02T05:55:41.272Z,61.77
2016-11-02T05:56:41.249Z,61.29
2016-11-02T05:57:41.231Z,61.19
2016-11-02T05:58:41.216Z,61.49
2016-11-02T05:59:41.199Z,61.19
2016-11-02T06:00:41.182Z,61.29
2016-11-02T06:01:41.165Z,61.58
2016-11-02T06:02:41.147Z,61.39
2016-11-02T06:03:41.131Z,61.68
2016-11-02T06:04:41.119Z,61.29
2016-11-02T06:05:41.101Z,61.68
2016-11-02T06:06:41.084Z,61.58
2016-11-02T06:07:41.065Z,61.97
2016-11-02T06:08:41.049Z,61.68
2016-11-02T06:09:41.033Z,62.16
2016-11-02T06:10:41.013Z,61.49
2016-11-02T06:11:41.045Z,62.06
2016-11-02T06:12:40.983Z,62.06
2016-11-02T06:13:40.967Z,61.49
2016-11-02T06:14:40.950Z,60.04
2016-11-02T06:15:40.935Z,57.54
2016-11-02T06:16:40.927Z,56.87
2016-11-02T06:17:40.900Z,56.26
2016-11-02T06:18:40.889Z,55.78
2016-11-02T06:19:40.871Z,55.4
2016-11-02T06:20:40.853Z,54.72
2016-11-02T06:21:40.535Z,54.91
2016-11-02T06:22:40.815Z,55.78
2016-11-02T06:23:40.800Z,55.98
2016-11-02T06:24:40.789Z,56.65
2016-11-02T06:25:40.768Z,57.45
2016-11-02T06:26:40.753Z,57.92
2016-11-02T06:27:40.741Z,57.73
2016-11-02T06:28:40.723Z,58.02
2016-11-02T06:29:40.721Z,58.31
2016-11-02T06:30:40.688Z,58.5
2016-11-02T06:31:40.669Z,58.6
2016-11-02T06:32:40.656Z,58.4
2016-11-02T06:33:40.637Z,58.6
2016-11-02T06:34:40.319Z,58.22
2016-11-02T06:35:40.604Z,58.4
2016-11-02T06:36:40.592Z,58.7
2016-11-02T06:37:40.571Z,59.08
2016-11-02T06:38:40.553Z,58.6
2016-11-02T06:39:40.536Z,58.89
2016-11-02T06:40:40.520Z,58.6
2016-11-02T06:41:40.501Z,58.79
2016-11-02T06:42:40.492Z,58.79
2016-11-02T06:43:40.468Z,59.17
2016-11-02T06:44:40.457Z,58.79
2016-11-02T06:45:40.440Z,59.08
2016-11-02T06:46:40.422Z,59.2
2016-11-02T06:47:40.403Z,58.98
2016-11-02T06:48:40.392Z,59.08
2016-11-02T06:49:40.377Z,59.37
2016-11-02T06:50:40.355Z,59.27
2016-11-02T06:51:40.346Z,59.17
2016-11-02T06:52:40.319Z,59.2
2016-11-02T06:53:40.312Z,59.17
2016-11-02T06:54:40.291Z,59.75
2016-11-02T06:55:40.275Z,59.75
2016-11-02T06:56:40.255Z,59.66
2016-11-02T06:57:39.947Z,59.47
2016-11-02T06:58:40.230Z,59.56
2016-11-02T06:59:40.207Z,59.75
2016-11-02T07:00:40.194Z,59.56
2016-11-02T07:01:40.177Z,59.4
2016-11-02T07:02:40.159Z,59.59
2016-11-02T07:03:40.144Z,59.59
2016-11-02T07:04:40.121Z,59.69
2016-11-02T07:05:40.109Z,59.59
2016-11-02T07:06:40.094Z,60.27
2016-11-02T07:07:40.079Z,59.75
2016-11-02T07:08:40.061Z,59.85
2016-11-02T07:09:39.744Z,60.07
2016-11-02T07:10:40.031Z,59.3
2016-11-02T07:11:40.012Z,60.07
2016-11-02T07:12:39.994Z,60.07
2016-11-02T07:13:39.978Z,60.04
2016-11-02T07:14:39.962Z,60.33
2016-11-02T07:15:39.947Z,59.97
2016-11-02T07:16:39.928Z,60.27
2016-11-02T07:17:39.916Z,60.17
2016-11-02T07:18:39.900Z,59.78
2016-11-02T07:19:39.880Z,59.49
2016-11-02T07:20:39.861Z,59.4
2016-11-02T07:21:39.846Z,59.59
2016-11-02T07:22:39.832Z,60.27
2016-11-02T07:23:39.813Z,59.97
2016-11-02T07:24:39.796Z,59.97
2016-11-02T07:25:39.780Z,59.59
2016-11-02T07:26:39.763Z,59.88
2016-11-02T07:27:39.748Z,59.97
2016-11-02T07:28:39.733Z,60.17
2016-11-02T07:29:39.718Z,56.9
2016-11-02T07:30:39.703Z,55.13
2016-11-02T07:31:39.680Z,55.66
2016-11-02T07:32:39.670Z,56.3
2016-11-02T07:33:39.657Z,56.4
2016-11-02T07:34:39.639Z,56.62
2016-11-02T07:35:39.619Z,58.09
2016-11-02T07:36:39.602Z,57.99
2016-11-02T07:37:39.290Z,58.5
2016-11-02T07:38:39.581Z,57.73
2016-11-02T07:39:39.554Z,58.02
2016-11-02T07:40:39.535Z,58.4
2016-11-02T07:41:39.519Z,57.83
2016-11-02T07:42:39.506Z,58.31
2016-11-02T07:43:39.509Z,58.15
2016-11-02T07:44:39.470Z,58.12
2016-11-02T07:45:39.459Z,57.95
2016-11-02T07:46:39.165Z,58.15
2016-11-02T07:47:39.120Z,58.53
2016-11-02T07:48:39.408Z,58.44
2016-11-02T07:49:39.385Z,58.24
2016-11-02T07:50:39.371Z,57.86
2016-11-02T07:51:39.357Z,57.76
2016-11-02T07:52:39.338Z,58.15
2016-11-02T07:53:39.321Z,57.95
2016-11-02T07:54:39.310Z,57.95
2016-11-02T07:55:39.327Z,58.15
2016-11-02T07:56:39.273Z,57.95
2016-11-02T07:57:39.258Z,57.95
2016-11-02T07:58:38.941Z,58.15
2016-11-02T07:59:39.229Z,58.05
2016-11-02T08:00:39.208Z,58.34
2016-11-02T08:01:39.194Z,58.34
2016-11-02T08:02:39.182Z,58.15
2016-11-02T08:03:38.895Z,58.34
2016-11-02T08:04:39.145Z,58.82
2016-11-02T08:05:39.129Z,58.75
2016-11-02T08:06:39.112Z,58.24
2016-11-02T08:07:39.098Z,58.63
2016-11-02T08:08:39.079Z,58.82
2016-11-02T08:09:39.067Z,58.34
2016-11-02T08:10:39.044Z,58.63
2016-11-02T08:11:39.031Z,58.53
2016-11-02T08:12:39.018Z,58.34
2016-11-02T08:13:38.697Z,58.34
2016-11-02T08:14:38.982Z,58.82
2016-11-02T08:15:38.966Z,58.72
2016-11-02T08:16:38.945Z,58.72
2016-11-02T08:17:38.936Z,58.82
2016-11-02T08:18:38.916Z,58.82
2016-11-02T08:19:38.900Z,58.72
2016-11-02T08:20:38.882Z,58.72
2016-11-02T08:21:38.867Z,58.82
2016-11-02T08:22:38.856Z,58.82
2016-11-02T08:23:38.835Z,58.72
2016-11-02T08:24:38.825Z,58.82
2016-11-02T08:25:38.848Z,58.53
2016-11-02T08:26:38.785Z,58.82
2016-11-02T08:27:38.470Z,58.72
2016-11-02T08:28:38.757Z,58.72
2016-11-02T08:29:38.738Z,58.72
2016-11-02T08:30:38.720Z,58.72
2016-11-02T08:31:38.705Z,58.53
2016-11-02T08:32:38.690Z,58.44
2016-11-02T08:33:38.373Z,58.47
2016-11-02T08:34:38.658Z,58.82
2016-11-02T08:35:38.642Z,58.72
2016-11-02T08:36:38.621Z,58.44
2016-11-02T08:37:38.312Z,58.24
2016-11-02T08:38:38.593Z,58.24
2016-11-02T08:39:38.577Z,58.65
2016-11-02T08:40:38.560Z,58.75
2016-11-02T08:41:38.542Z,58.82
2016-11-02T08:42:38.533Z,58.27
2016-11-02T08:43:38.512Z,58.65
2016-11-02T08:44:38.496Z,58.44
2016-11-02T08:45:38.478Z,58.85
2016-11-02T08:46:38.501Z,58.65
2016-11-02T08:47:38.451Z,58.85
2016-11-02T08:48:38.132Z,58.85
2016-11-02T08:49:38.412Z,58.75
2016-11-02T08:50:38.398Z,58.75
2016-11-02T08:51:38.382Z,58.85
2016-11-02T08:52:38.372Z,58.75
2016-11-02T08:53:38.347Z,58.63
2016-11-02T08:54:38.334Z,59.04
2016-11-02T08:55:38.015Z,58.72
2016-11-02T08:56:38.302Z,59.01
2016-11-02T08:57:38.284Z,58.85
2016-11-02T08:58:38.267Z,59.04
2016-11-02T08:59:37.955Z,59.14
2016-11-02T09:00:38.237Z,59.01
2016-11-02T09:01:38.219Z,59.14
2016-11-02T09:02:38.203Z,58.72
2016-11-02T09:03:38.195Z,58.85
2016-11-02T09:04:38.169Z,58.72
2016-11-02T09:05:38.156Z,58.75
2016-11-02T09:06:38.139Z,58.82
2016-11-02T09:07:38.121Z,58.75
2016-11-02T09:08:38.109Z,58.27
2016-11-02T09:09:38.091Z,58.75
2016-11-02T09:10:38.078Z,58.47
2016-11-02T09:11:38.060Z,58.75
2016-11-02T09:12:38.055Z,55.67
2016-11-02T09:13:38.023Z,52.37
2016-11-02T09:14:38.013Z,52.84
2016-11-02T09:15:37.691Z,55.29
2016-11-02T09:16:37.976Z,56.05
2016-11-02T09:17:37.960Z,56.76
2016-11-02T09:18:37.948Z,55.73
2016-11-02T09:19:37.933Z,56.04
2016-11-02T09:20:37.913Z,55.49
2016-11-02T09:21:37.592Z,55.49
2016-11-02T09:22:37.877Z,55.33
2016-11-02T09:23:37.866Z,55.71
2016-11-02T09:24:37.846Z,55.13
2016-11-02T09:25:37.824Z,55.26
2016-11-02T09:26:37.808Z,54.68
2016-11-02T09:27:37.803Z,54.97
2016-11-02T09:28:37.782Z,55.48
2016-11-02T09:29:37.762Z,55.57
2016-11-02T09:30:37.749Z,55.55
2016-11-02T09:31:37.730Z,55.87
2016-11-02T09:32:37.713Z,56.05
2016-11-02T09:33:37.698Z,55.77
2016-11-02T09:34:37.686Z,55.87
2016-11-02T09:35:37.664Z,55.77
2016-11-02T09:36:37.650Z,55.57
2016-11-02T09:37:37.633Z,55.48
2016-11-02T09:38:37.621Z,55.77
2016-11-02T09:39:37.605Z,56.05
2016-11-02T09:40:37.597Z,56.05
2016-11-02T09:41:37.572Z,56.05
2016-11-02T09:42:37.553Z,56.05
2016-11-02T09:43:37.536Z,56.35
2016-11-02T09:44:37.520Z,56.35
2016-11-02T09:45:37.509Z,56.15
2016-11-02T09:46:37.488Z,56.92
2016-11-02T09:47:37.473Z,57.02
2016-11-02T09:48:37.462Z,57.02
2016-11-02T09:49:37.145Z,56.44
2016-11-02T09:50:37.121Z,56.54
2016-11-02T09:51:37.410Z,56.63
2016-11-02T09:52:37.397Z,57.02
2016-11-02T09:53:37.376Z,57.12
2016-11-02T09:54:37.362Z,57.4
2016-11-02T09:55:37.347Z,57.5
2016-11-02T09:56:37.327Z,57.4
2016-11-02T09:57:37.313Z,57.5
2016-11-02T09:58:37.295Z,57.4
2016-11-02T09:59:37.278Z,57.79
2016-11-02T10:00:37.263Z,57.6
2016-11-02T10:01:37.249Z,57.4
2016-11-02T10:02:37.237Z,57.6
2016-11-02T10:03:37.215Z,56.82
2016-11-02T10:04:37.204Z,57.31
2016-11-02T10:05:37.185Z,57.4
2016-11-02T10:06:36.866Z,57.5
2016-11-02T10:07:37.150Z,56.82
2016-11-02T10:08:37.133Z,57.31
2016-11-02T10:09:37.120Z,56.73
2016-11-02T10:10:37.105Z,57.5
2016-11-02T10:11:37.092Z,56.82
2016-11-02T10:12:37.073Z,57.69
2016-11-02T10:13:37.060Z,57.21
2016-11-02T10:14:36.737Z,57.4
2016-11-02T10:15:37.023Z,57.6
2016-11-02T10:16:37.008Z,57.69
2016-11-02T10:17:36.997Z,57.5
2016-11-02T10:18:36.975Z,57.98
2016-11-02T10:19:36.958Z,57.98
2016-11-02T10:20:36.948Z,57.79
2016-11-02T10:21:36.927Z,57.69
2016-11-02T10:22:36.611Z,57.69
2016-11-02T10:23:36.895Z,57.69
2016-11-02T10:24:36.879Z,57.98
2016-11-02T10:25:36.874Z,57.6
2016-11-02T10:26:36.847Z,57.89
2016-11-02T10:27:36.837Z,57.02
2016-11-02T10:28:36.814Z,55.79
2016-11-02T10:29:36.797Z,55.82
2016-11-02T10:30:36.782Z,55.6
2016-11-02T10:31:36.824Z,56.47
2016-11-02T10:32:36.753Z,56.66
2016-11-02T10:33:36.732Z,56.95
2016-11-02T10:34:36.723Z,57.05
2016-11-02T10:35:36.703Z,57.69
2016-11-02T10:36:36.688Z,58.27
2016-11-02T10:37:36.671Z,57.6
2016-11-02T10:38:36.658Z,57.5
2016-11-02T10:39:36.679Z,58.27
2016-11-02T10:40:36.625Z,57.89
2016-11-02T10:41:36.606Z,57.89
2016-11-02T10:42:36.591Z,57.98
2016-11-02T10:43:36.618Z,58.37
2016-11-02T10:44:36.565Z,58.17
2016-11-02T10:45:36.541Z,57.98
2016-11-02T10:46:36.226Z,58.27
2016-11-02T10:47:36.513Z,57.98
2016-11-02T10:48:36.493Z,58.17
2016-11-02T10:49:36.478Z,58.17
2016-11-02T10:50:36.506Z,58.37
2016-11-02T10:51:36.447Z,57.89
2016-11-02T10:52:36.429Z,57.98
2016-11-02T10:53:36.416Z,58.08
2016-11-02T10:54:36.399Z,57.89
2016-11-02T10:55:36.384Z,58.27
2016-11-02T10:56:36.373Z,57.79
2016-11-02T10:57:36.351Z,57.79
2016-11-02T10:58:36.336Z,57.89
2016-11-02T10:59:36.321Z,57.69
2016-11-02T11:00:36.309Z,57.98
2016-11-02T11:01:36.287Z,57.79
2016-11-02T11:02:36.278Z,58.27
2016-11-02T11:03:36.254Z,58.27
2016-11-02T11:04:36.239Z,57.98
2016-11-02T11:05:35.920Z,57.98
2016-11-02T11:06:36.211Z,58.75
2016-11-02T11:07:36.190Z,58.85
2016-11-02T11:08:35.875Z,58.65
2016-11-02T11:09:36.161Z,58.56
2016-11-02T11:10:36.144Z,58.85
2016-11-02T11:11:36.128Z,58.17
2016-11-02T11:12:36.113Z,58.08
2016-11-02T11:13:36.096Z,58.08
2016-11-02T11:14:36.081Z,57.79
2016-11-02T11:15:36.074Z,58.17
2016-11-02T11:16:36.049Z,58.27
2016-11-02T11:17:36.044Z,58.56
2016-11-02T11:18:36.016Z,58.17
2016-11-02T11:19:35.999Z,57.89
2016-11-02T11:20:36.022Z,58.27
2016-11-02T11:21:35.969Z,58.17
2016-11-02T11:22:35.952Z,58.17
2016-11-02T11:23:35.641Z,58.17
2016-11-02T11:24:35.923Z,57.89
2016-11-02T11:25:35.944Z,57.89
2016-11-02T11:26:35.889Z,57.98
2016-11-02T11:27:35.915Z,57.79
2016-11-02T11:28:35.855Z,57.89
2016-11-02T11:29:35.839Z,57.79
2016-11-02T11:30:35.526Z,58.47
2016-11-02T11:31:35.525Z,58.59
2016-11-02T11:32:35.801Z,58.17
2016-11-02T11:33:35.789Z,57.79
2016-11-02T11:34:35.761Z,57.89
2016-11-02T11:35:35.742Z,58.17
2016-11-02T11:36:35.731Z,58.27
2016-11-02T11:37:35.714Z,58.08
2016-11-02T11:38:35.699Z,58.08
2016-11-02T11:39:35.682Z,57.98
2016-11-02T11:40:35.671Z,58.08
2016-11-02T11:41:35.653Z,58.08
2016-11-02T11:42:35.335Z,58.37
2016-11-02T11:43:35.619Z,58.37
2016-11-02T11:44:35.602Z,58.37
2016-11-02T11:45:35.587Z,58.37
2016-11-02T11:46:35.573Z,57.98
2016-11-02T11:47:35.562Z,58.17
2016-11-02T11:48:35.537Z,57.98
2016-11-02T11:49:35.525Z,58.17
2016-11-02T11:50:35.506Z,57.89
2016-11-02T11:51:35.491Z,58.08
2016-11-02T11:52:35.476Z,58.08
2016-11-02T11:53:35.463Z,58.47
2016-11-02T11:54:35.442Z,58.65
2016-11-02T11:55:35.435Z,58.47
2016-11-02T11:56:35.413Z,58.37
2016-11-02T11:57:35.394Z,58.27
2016-11-02T11:58:35.379Z,58.56
2016-11-02T11:59:35.059Z,58.47
2016-11-02T12:00:35.352Z,58.47
2016-11-02T12:01:35.031Z,58.17
2016-11-02T12:02:35.316Z,58.47
2016-11-02T12:03:35.301Z,57.98
2016-11-02T12:04:35.282Z,57.98
2016-11-02T12:05:34.964Z,58.37
2016-11-02T12:06:35.246Z,58.17
2016-11-02T12:07:35.236Z,58.08
2016-11-02T12:08:35.217Z,58.08
2016-11-02T12:09:34.901Z,58.65
2016-11-02T12:10:35.184Z,58.56
2016-11-02T12:11:35.175Z,58.65
2016-11-02T12:12:35.160Z,58.75
2016-11-02T12:13:35.139Z,58.65
2016-11-02T12:14:35.121Z,58.56
2016-11-02T12:15:35.106Z,58.65
2016-11-02T12:16:35.091Z,58.27
2016-11-02T12:17:35.076Z,58.75
2016-11-02T12:18:35.062Z,58.65
2016-11-02T12:19:35.053Z,58.65
2016-11-02T12:20:35.026Z,58.47
2016-11-02T12:21:35.010Z,58.65
2016-11-02T12:22:35.003Z,58.65
2016-11-02T12:23:34.995Z,58.56
2016-11-02T12:24:34.961Z,58.47
2016-11-02T12:25:34.950Z,58.56
2016-11-02T12:26:34.629Z,58.75
2016-11-02T12:27:34.914Z,58.65
2016-11-02T12:28:34.899Z,58.75
2016-11-02T12:29:34.883Z,58.56
2016-11-02T12:30:34.874Z,58.08
2016-11-02T12:31:34.850Z,58.17
2016-11-02T12:32:34.834Z,57.98
2016-11-02T12:33:34.829Z,58.27
2016-11-02T12:34:34.801Z,58.11
2016-11-02T12:35:34.488Z,57.92
2016-11-02T12:36:34.771Z,58.3
2016-11-02T12:37:34.756Z,58.3
2016-11-02T12:38:34.737Z,58.01
2016-11-02T12:39:34.723Z,58.27
2016-11-02T12:40:34.714Z,57.98
2016-11-02T12:41:34.700Z,58.08
2016-11-02T12:42:34.676Z,57.98
2016-11-02T12:43:34.663Z,57.82
2016-11-02T12:44:34.647Z,58.17
2016-11-02T12:45:34.635Z,57.82
2016-11-02T12:46:34.344Z,57.82
2016-11-02T12:47:34.304Z,57.53
2016-11-02T12:48:34.589Z,57.72
2016-11-02T12:49:34.567Z,58.3
2016-11-02T12:50:34.548Z,58.2
2016-11-02T12:51:34.535Z,58.11
2016-11-02T12:52:34.222Z,57.62
2016-11-02T12:53:34.502Z,58.01
2016-11-02T12:54:34.551Z,57.92
2016-11-02T12:55:34.474Z,57.82